createdAt,value
2023-09-09T00:01:58.418Z,88.13
2023-09-09T00:04:25.119Z,89.31
2023-09-09T00:06:51.765Z,88.89
2023-09-09T00:09:18.505Z,89.24
2023-09-09T00:11:45.107Z,87.65
2023-09-09T00:14:11.797Z,89.82
2023-09-09T00:16:38.575Z,92.26
2023-09-09T00:19:06.399Z,88.85
2023-09-09T00:21:33.070Z,89.59
2023-09-09T00:23:59.697Z,88.80
2023-09-09T00:26:28.989Z,87.87
2023-09-09T00:28:55.835Z,88.01
2023-09-09T00:31:22.626Z,87.58
2023-09-09T00:33:49.344Z,87.22
2023-09-09T00:36:16.248Z,87.22
2023-09-09T00:38:43.035Z,87.32
2023-09-09T00:41:18.617Z,86.56
2023-09-09T00:43:46.506Z,87.98
2023-09-09T00:46:15.119Z,87.38
2023-09-09T00:48:41.828Z,87.79
2023-09-09T00:51:12.832Z,89.10
2023-09-09T00:53:40.701Z,88.48
2023-09-09T00:56:07.728Z,88.71
2023-09-09T00:58:34.471Z,90.33
2023-09-09T01:01:03.422Z,90.65
2023-09-09T01:03:32.006Z,89.86
2023-09-09T01:05:59.206Z,88.52
2023-09-09T01:08:29.977Z,91.20
2023-09-09T01:10:57.873Z,90.13
2023-09-09T01:13:24.974Z,90.68
2023-09-09T01:15:54.835Z,91.10
2023-09-09T01:18:22.530Z,89.94
2023-09-09T01:21:00.928Z,89.89
2023-09-09T01:23:27.660Z,89.04
2023-09-09T01:25:54.363Z,90.18
2023-09-09T01:28:23.438Z,89.38
2023-09-09T01:30:50.841Z,90.24
2023-09-09T01:33:18.173Z,89.92
2023-09-09T01:35:45.256Z,89.39
2023-09-09T01:38:11.738Z,89.78
2023-09-09T01:40:38.362Z,89.11
2023-09-09T01:43:05.064Z,90.05
2023-09-09T01:45:31.790Z,90.09
2023-09-09T01:47:59.787Z,91.43
2023-09-09T01:50:26.650Z,93.07
2023-09-09T01:52:53.431Z,94.13
2023-09-09T01:55:20.146Z,95.76
2023-09-09T01:57:48.163Z,95.26
2023-09-09T02:00:15.693Z,92.54
2023-09-09T02:02:42.469Z,92.86
2023-09-09T02:05:10.659Z,91.86
2023-09-09T02:07:37.387Z,91.21
2023-09-09T02:10:04.619Z,90.23
2023-09-09T02:12:31.412Z,91.40
2023-09-09T02:14:58.098Z,92.54
2023-09-09T02:17:24.817Z,91.60
2023-09-09T02:19:58.403Z,92.19
2023-09-09T02:22:25.393Z,92.90
2023-09-09T02:24:56.812Z,95.54
2023-09-09T02:27:24.438Z,95.29
2023-09-09T02:29:51.661Z,94.11
2023-09-09T02:32:18.940Z,95.50
2023-09-09T02:34:46.070Z,96.42
2023-09-09T02:37:23.127Z,95.03
2023-09-09T02:39:51.542Z,95.15
2023-09-09T02:42:20.528Z,96.23
2023-09-09T02:44:48.098Z,97.94
2023-09-09T02:47:14.779Z,97.19
2023-09-09T02:49:42.057Z,97.39
2023-09-09T02:52:09.065Z,96.29
2023-09-09T02:54:36.254Z,96.58
2023-09-09T02:57:04.970Z,97.68
2023-09-09T02:59:34.322Z,97.00
2023-09-09T03:02:01.817Z,96.14
2023-09-09T03:04:28.760Z,95.25
2023-09-09T03:06:55.355Z,96.63
2023-09-09T03:09:22.145Z,97.00
2023-09-09T03:11:48.820Z,97.71
2023-09-09T03:14:15.700Z,97.73
2023-09-09T03:16:42.490Z,98.20
2023-09-09T03:19:09.169Z,100.00
2023-09-09T03:21:35.757Z,100.00
2023-09-09T03:24:02.389Z,100.00
2023-09-09T03:26:29.089Z,100.00
2023-09-09T03:28:55.689Z,99.84
2023-09-09T03:31:22.318Z,100.00
2023-09-09T03:33:48.947Z,100.00
2023-09-09T03:36:15.633Z,100.00
2023-09-09T03:38:42.226Z,100.00
2023-09-09T03:41:09.202Z,99.46
2023-09-09T03:43:37.854Z,97.85
2023-09-09T03:46:05.238Z,97.66
2023-09-09T03:48:32.069Z,99.56
2023-09-09T03:51:02.961Z,99.33
2023-09-09T03:53:29.807Z,100.00
2023-09-09T03:55:56.663Z,100.00
2023-09-09T03:58:25.364Z,97.51
2023-09-09T04:01:09.244Z,98.20
2023-09-09T04:03:38.243Z,100.00
2023-09-09T04:06:07.899Z,97.71
2023-09-09T04:08:36.460Z,97.32
2023-09-09T04:11:04.261Z,99.81
2023-09-09T04:13:31.545Z,100.00
2023-09-09T04:15:59.655Z,100.00
2023-09-09T04:18:42.986Z,100.00
2023-09-09T04:21:11.202Z,100.00
2023-09-09T04:23:38.000Z,100.00
2023-09-09T04:26:04.966Z,100.00
2023-09-09T04:28:31.588Z,100.00
2023-09-09T04:30:58.168Z,100.00
2023-09-09T04:33:25.000Z,100.00
2023-09-09T04:35:51.681Z,100.00
2023-09-09T04:38:18.367Z,100.00
2023-09-09T04:40:44.991Z,100.00
2023-09-09T04:43:11.575Z,100.00
2023-09-09T04:45:38.224Z,100.00
2023-09-09T04:48:06.437Z,100.00
2023-09-09T04:50:33.268Z,100.00
2023-09-09T04:53:00.025Z,100.00
2023-09-09T04:55:26.745Z,99.27
2023-09-09T04:57:53.402Z,99.27
2023-09-09T05:00:20.065Z,99.33
2023-09-09T05:02:46.745Z,100.00
2023-09-09T05:05:13.431Z,100.00
2023-09-09T05:07:40.025Z,100.00
2023-09-09T05:10:07.545Z,100.00
2023-09-09T05:12:35.222Z,100.00
2023-09-09T05:15:01.855Z,100.00
2023-09-09T05:17:28.688Z,100.00
2023-09-09T05:19:55.654Z,100.00
2023-09-09T05:22:22.263Z,100.00
2023-09-09T05:24:48.948Z,100.00
2023-09-09T05:27:15.507Z,100.00
2023-09-09T05:29:44.228Z,100.00
2023-09-09T05:32:11.298Z,100.00
2023-09-09T05:34:38.108Z,100.00
2023-09-09T05:37:04.966Z,100.00
2023-09-09T05:39:31.623Z,100.00
2023-09-09T05:41:58.273Z,100.00
2023-09-09T05:44:24.919Z,100.00
2023-09-09T05:46:51.645Z,100.00
2023-09-09T05:49:32.088Z,100.00
2023-09-09T05:52:03.410Z,97.75
2023-09-09T05:54:29.999Z,93.86
2023-09-09T05:56:57.627Z,89.90
2023-09-09T05:59:24.404Z,87.31
2023-09-09T06:01:51.128Z,83.21
2023-09-09T06:04:17.878Z,82.49
2023-09-09T06:06:48.163Z,78.29
2023-09-09T06:09:14.804Z,79.22
2023-09-09T06:11:41.652Z,77.71
2023-09-09T06:14:08.474Z,76.27
2023-09-09T06:16:35.127Z,73.61
2023-09-09T06:19:01.788Z,69.51
2023-09-09T06:21:28.541Z,67.24
2023-09-09T06:23:56.126Z,67.00
2023-09-09T06:26:22.771Z,68.18
2023-09-09T06:28:49.509Z,65.36
2023-09-09T06:31:16.170Z,65.37
2023-09-09T06:33:44.938Z,64.24
2023-09-09T06:36:12.502Z,62.70
2023-09-09T06:38:39.291Z,61.75
2023-09-09T06:41:06.104Z,60.35
2023-09-09T06:43:32.746Z,60.20
2023-09-09T06:46:01.333Z,59.40
2023-09-09T06:48:30.282Z,58.31
2023-09-09T06:50:57.501Z,56.53
2023-09-09T06:53:25.900Z,56.46
2023-09-09T06:55:53.148Z,55.17
2023-09-09T06:58:19.720Z,54.50
2023-09-09T07:00:53.379Z,54.34
2023-09-09T07:03:21.240Z,54.32
2023-09-09T07:05:48.497Z,55.57
2023-09-09T07:08:15.064Z,53.78
2023-09-09T07:10:51.950Z,54.89
2023-09-09T07:13:18.789Z,55.01
2023-09-09T07:15:45.402Z,54.18
2023-09-09T07:18:12.077Z,52.47
2023-09-09T07:20:39.487Z,51.18
2023-09-09T07:23:06.246Z,49.53
2023-09-09T07:25:34.671Z,48.13
2023-09-09T07:28:01.494Z,47.00
2023-09-09T07:30:28.107Z,48.76
2023-09-09T07:32:54.700Z,49.19
2023-09-09T07:35:22.056Z,48.61
2023-09-09T07:37:51.505Z,46.42
2023-09-09T07:40:19.177Z,46.80
2023-09-09T07:42:45.715Z,45.13
2023-09-09T07:45:12.457Z,46.71
2023-09-09T07:47:39.713Z,44.37
2023-09-09T07:50:07.333Z,45.16
2023-09-09T07:52:33.942Z,43.57
2023-09-09T07:55:00.507Z,43.98
2023-09-09T07:57:27.207Z,44.28
2023-09-09T07:59:53.973Z,44.53
2023-09-09T08:02:20.538Z,45.06
2023-09-09T08:04:48.406Z,42.43
2023-09-09T08:07:15.153Z,40.86
2023-09-09T08:09:42.351Z,41.34
2023-09-09T08:12:09.126Z,40.58
2023-09-09T08:14:35.713Z,39.87
2023-09-09T08:17:02.354Z,38.93
2023-09-09T08:19:29.088Z,39.63
2023-09-09T08:21:55.653Z,40.10
2023-09-09T08:24:22.979Z,40.32
2023-09-09T08:26:49.829Z,37.32
2023-09-09T08:29:16.443Z,38.13
2023-09-09T08:31:43.136Z,35.73
2023-09-09T08:34:09.748Z,38.08
2023-09-09T08:36:36.375Z,32.83
2023-09-09T08:39:03.029Z,32.97
2023-09-09T08:42:09.830Z,30.32
2023-09-09T08:44:46.111Z,31.06
2023-09-09T08:47:13.097Z,30.69
2023-09-09T08:49:42.689Z,30.23
2023-09-09T08:52:17.408Z,31.02
2023-09-09T08:54:44.894Z,31.12
2023-09-09T08:57:11.690Z,31.62
2023-09-09T08:59:39.675Z,33.10
2023-09-09T09:02:09.678Z,33.18
2023-09-09T09:04:38.174Z,33.46
2023-09-09T09:07:06.653Z,33.77
2023-09-09T09:09:35.867Z,32.55
2023-09-09T09:12:04.348Z,33.14
2023-09-09T09:14:31.312Z,32.12
2023-09-09T09:16:58.044Z,27.73
2023-09-09T09:19:28.699Z,32.39
2023-09-09T09:21:56.622Z,30.32
2023-09-09T09:24:27.654Z,29.97
2023-09-09T09:26:56.225Z,29.50
2023-09-09T09:29:23.118Z,29.48
2023-09-09T09:31:53.404Z,29.49
2023-09-09T09:34:21.228Z,27.81
2023-09-09T09:36:48.058Z,31.72
2023-09-09T09:39:16.554Z,33.14
2023-09-09T09:41:44.620Z,27.68
2023-09-09T09:44:21.755Z,33.40
2023-09-09T09:47:05.246Z,28.86
2023-09-09T09:49:42.668Z,26.51
2023-09-09T09:52:09.903Z,29.44
2023-09-09T09:54:38.073Z,29.37
2023-09-09T09:57:06.389Z,28.34
2023-09-09T09:59:35.371Z,28.50
2023-09-09T10:02:04.687Z,27.95
2023-09-09T10:04:40.184Z,28.88
2023-09-09T10:07:11.257Z,29.70
2023-09-09T10:09:39.978Z,29.64
2023-09-09T10:12:42.051Z,29.22
2023-09-09T10:15:14.577Z,26.73
2023-09-09T10:17:42.333Z,27.28
2023-09-09T10:20:09.727Z,29.62
2023-09-09T10:22:37.527Z,31.60
2023-09-09T10:25:05.613Z,26.46
2023-09-09T10:27:33.087Z,25.27
2023-09-09T10:30:01.923Z,26.03
2023-09-09T10:32:29.433Z,28.48
2023-09-09T10:34:57.204Z,29.71
2023-09-09T10:37:24.042Z,29.45
2023-09-09T10:39:51.467Z,28.33
2023-09-09T10:42:19.816Z,26.90
2023-09-09T10:44:49.967Z,26.32
2023-09-09T10:47:17.929Z,28.42
2023-09-09T10:49:44.676Z,31.55
2023-09-09T10:52:33.765Z,27.10
2023-09-09T10:55:15.990Z,27.93
2023-09-09T10:57:43.507Z,29.23
2023-09-09T11:00:40.353Z,28.67
2023-09-09T11:03:11.456Z,29.27
2023-09-09T11:05:57.792Z,30.25
2023-09-09T11:08:30.542Z,27.88
2023-09-09T11:11:13.745Z,29.45
2023-09-09T11:13:41.706Z,28.68
2023-09-09T11:16:08.621Z,27.33
2023-09-09T11:18:36.540Z,27.45
2023-09-09T11:21:06.635Z,27.38
2023-09-09T11:23:34.312Z,27.69
2023-09-09T11:26:02.670Z,27.84
2023-09-09T11:28:30.543Z,28.67
2023-09-09T11:30:57.183Z,22.80
2023-09-09T11:33:26.959Z,26.96
2023-09-09T11:35:53.676Z,23.14
2023-09-09T11:38:20.322Z,24.38
2023-09-09T11:40:47.384Z,24.56
2023-09-09T11:43:16.839Z,21.65
2023-09-09T11:45:43.638Z,22.17
2023-09-09T11:48:15.371Z,20.97
2023-09-09T11:50:43.299Z,27.17
2023-09-09T11:53:11.004Z,23.60
2023-09-09T11:55:37.775Z,20.03
2023-09-09T11:58:04.497Z,23.66
2023-09-09T12:00:31.512Z,21.09
2023-09-09T12:02:58.200Z,26.00
2023-09-09T12:05:31.131Z,24.14
2023-09-09T12:08:03.103Z,22.29
2023-09-09T12:10:35.000Z,23.59
2023-09-09T12:13:01.933Z,25.01
2023-09-09T12:15:28.821Z,24.51
2023-09-09T12:17:55.665Z,21.82
2023-09-09T12:20:22.253Z,23.19
2023-09-09T12:22:49.229Z,22.30
2023-09-09T12:25:28.883Z,21.14
2023-09-09T12:27:55.491Z,24.70
2023-09-09T12:30:32.942Z,21.87
2023-09-09T12:33:10.959Z,23.21
2023-09-09T12:35:49.017Z,26.95
2023-09-09T12:38:16.867Z,25.82
2023-09-09T12:40:46.486Z,21.46
2023-09-09T12:43:13.778Z,22.98
2023-09-09T12:45:48.116Z,23.37
2023-09-09T12:48:15.158Z,21.07
2023-09-09T12:50:43.181Z,25.33
2023-09-09T12:53:11.701Z,24.03
2023-09-09T12:55:38.528Z,22.43
2023-09-09T12:58:05.248Z,24.41
2023-09-09T13:00:32.076Z,22.13
2023-09-09T13:02:58.799Z,25.27
2023-09-09T13:05:25.600Z,24.30
2023-09-09T13:07:52.184Z,23.19
2023-09-09T13:10:19.231Z,26.18
2023-09-09T13:12:47.360Z,22.78
2023-09-09T13:15:14.885Z,23.83
2023-09-09T13:17:41.953Z,22.41
2023-09-09T13:20:09.301Z,24.12
2023-09-09T13:22:36.155Z,23.29
2023-09-09T13:25:03.249Z,21.72
2023-09-09T13:27:30.072Z,25.95
2023-09-09T13:29:56.679Z,26.32
2023-09-09T13:32:23.802Z,25.44
2023-09-09T13:34:50.482Z,23.92
2023-09-09T13:37:17.138Z,21.58
2023-09-09T13:39:43.795Z,23.44
2023-09-09T13:42:10.483Z,21.89
2023-09-09T13:44:40.745Z,22.12
2023-09-09T13:47:16.103Z,21.49
2023-09-09T13:49:45.883Z,21.67
2023-09-09T13:52:13.038Z,23.40
2023-09-09T13:54:40.078Z,21.92
2023-09-09T13:57:07.477Z,23.49
2023-09-09T13:59:35.104Z,24.87
2023-09-09T14:02:03.209Z,24.78
2023-09-09T14:04:33.416Z,23.68
2023-09-09T14:07:00.093Z,23.20
2023-09-09T14:09:29.284Z,24.33
2023-09-09T14:11:56.524Z,22.59
2023-09-09T14:14:24.064Z,23.15
2023-09-09T14:16:52.093Z,23.48
2023-09-09T14:19:19.178Z,27.06
2023-09-09T14:21:45.828Z,24.47
2023-09-09T14:24:12.566Z,23.65
2023-09-09T14:26:39.473Z,21.90
2023-09-09T14:29:06.179Z,23.92
2023-09-09T14:31:33.113Z,25.94
2023-09-09T14:33:59.643Z,24.01
2023-09-09T14:36:26.232Z,23.42
2023-09-09T14:38:52.979Z,26.14
2023-09-09T14:41:19.641Z,22.50
2023-09-09T14:43:46.418Z,22.88
2023-09-09T14:46:13.098Z,23.62
2023-09-09T14:48:57.940Z,25.33
2023-09-09T14:51:25.211Z,24.31
2023-09-09T14:53:51.979Z,23.05
2023-09-09T14:56:19.070Z,21.64
2023-09-09T14:58:45.575Z,21.20
2023-09-09T15:01:12.200Z,24.76
2023-09-09T15:03:40.100Z,23.20
2023-09-09T15:06:07.090Z,23.20
2023-09-09T15:08:33.775Z,24.89
2023-09-09T15:11:00.327Z,22.04
2023-09-09T15:13:27.058Z,23.83
2023-09-09T15:15:53.834Z,22.93
2023-09-09T15:18:20.549Z,24.41
2023-09-09T15:20:47.320Z,25.27
2023-09-09T15:23:13.864Z,25.40
2023-09-09T15:25:40.622Z,25.71
2023-09-09T15:28:07.268Z,24.80
2023-09-09T15:30:33.930Z,25.17
2023-09-09T15:33:00.693Z,26.08
2023-09-09T15:35:29.778Z,25.94
2023-09-09T15:37:56.658Z,24.28
2023-09-09T15:40:23.449Z,26.96
2023-09-09T15:42:50.108Z,25.51
2023-09-09T15:45:16.923Z,26.81
2023-09-09T15:47:43.559Z,26.24
2023-09-09T15:50:11.540Z,26.14
2023-09-09T15:52:38.278Z,27.35
2023-09-09T15:55:05.075Z,27.34
2023-09-09T15:57:31.787Z,27.08
2023-09-09T15:59:58.470Z,27.55
2023-09-09T16:02:25.996Z,27.55
2023-09-09T16:04:52.732Z,27.86
2023-09-09T16:07:19.571Z,28.49
2023-09-09T16:09:46.232Z,29.43
2023-09-09T16:12:12.840Z,29.02
2023-09-09T16:14:39.485Z,28.95
2023-09-09T16:17:06.192Z,29.41
2023-09-09T16:19:32.880Z,28.52
2023-09-09T16:21:59.530Z,29.33
2023-09-09T16:24:26.215Z,28.72
2023-09-09T16:26:52.826Z,30.97
2023-09-09T16:29:19.413Z,28.93
2023-09-09T16:31:46.088Z,31.54
2023-09-09T16:34:12.692Z,29.26
2023-09-09T16:36:39.347Z,30.12
2023-09-09T16:39:05.946Z,29.72
2023-09-09T16:41:32.568Z,29.32
2023-09-09T16:43:59.329Z,29.54
2023-09-09T16:46:26.731Z,29.93
2023-09-09T16:48:53.733Z,30.44
2023-09-09T16:51:20.402Z,31.10
2023-09-09T16:53:47.935Z,30.98
2023-09-09T16:56:14.710Z,30.38
2023-09-09T16:58:41.893Z,29.84
2023-09-09T17:01:08.807Z,30.06
2023-09-09T17:03:35.812Z,30.76
2023-09-09T17:06:02.518Z,30.65
2023-09-09T17:08:29.465Z,30.44
2023-09-09T17:10:56.140Z,29.77
2023-09-09T17:13:22.809Z,29.76
2023-09-09T17:15:50.033Z,30.12
2023-09-09T17:18:16.614Z,30.49
2023-09-09T17:20:43.460Z,30.36
2023-09-09T17:23:10.165Z,30.09
2023-09-09T17:25:36.770Z,30.96
2023-09-09T17:28:03.656Z,29.46
2023-09-09T17:30:30.310Z,30.24
2023-09-09T17:32:57.599Z,30.40
2023-09-09T17:35:25.213Z,30.41
2023-09-09T17:37:51.912Z,30.07
2023-09-09T17:40:19.364Z,30.27
2023-09-09T17:42:46.108Z,30.29
2023-09-09T17:45:12.888Z,30.17
2023-09-09T17:47:42.871Z,30.72
2023-09-09T17:50:09.879Z,30.66
2023-09-09T17:52:36.544Z,30.39
2023-09-09T17:55:04.941Z,31.86
2023-09-09T17:57:32.003Z,31.24
2023-09-09T17:59:58.545Z,30.97
2023-09-09T18:02:25.208Z,30.45
2023-09-09T18:04:51.865Z,30.51
2023-09-09T18:07:18.533Z,30.15
2023-09-09T18:09:45.248Z,30.79
2023-09-09T18:12:11.934Z,29.94
2023-09-09T18:14:38.570Z,30.26
2023-09-09T18:17:07.743Z,30.49
2023-09-09T18:19:34.864Z,30.20
2023-09-09T18:22:01.746Z,30.83
2023-09-09T18:24:28.510Z,31.06
2023-09-09T18:26:55.202Z,30.70
2023-09-09T18:29:25.304Z,30.14
2023-09-09T18:31:53.290Z,31.01
2023-09-09T18:34:20.008Z,30.79
2023-09-09T18:36:46.705Z,31.06
2023-09-09T18:39:13.361Z,31.39
2023-09-09T18:41:40.749Z,31.11
2023-09-09T18:44:07.552Z,32.42
2023-09-09T18:46:34.360Z,32.07
2023-09-09T18:49:02.179Z,32.76
2023-09-09T18:51:29.002Z,32.07
2023-09-09T18:53:55.773Z,33.13
2023-09-09T18:56:23.696Z,34.04
2023-09-09T18:58:50.649Z,33.04
2023-09-09T19:01:17.275Z,33.34
2023-09-09T19:03:44.045Z,33.54
2023-09-09T19:06:11.259Z,33.71
2023-09-09T19:08:38.290Z,34.24
2023-09-09T19:11:06.035Z,32.34
2023-09-09T19:13:32.832Z,34.23
2023-09-09T19:15:59.624Z,38.08
2023-09-09T19:18:27.818Z,34.40
2023-09-09T19:20:54.434Z,41.73
2023-09-09T19:23:21.119Z,45.80
2023-09-09T19:25:51.612Z,38.96
2023-09-09T19:28:18.347Z,44.76
2023-09-09T19:30:45.183Z,41.61
2023-09-09T19:33:11.909Z,40.54
2023-09-09T19:35:38.496Z,37.12
2023-09-09T19:38:05.313Z,39.30
2023-09-09T19:40:31.987Z,40.13
2023-09-09T19:42:58.683Z,39.96
2023-09-09T19:45:25.506Z,41.62
2023-09-09T19:47:52.157Z,40.01
2023-09-09T19:50:18.945Z,37.06
2023-09-09T19:52:45.886Z,37.94
2023-09-09T19:55:13.106Z,43.37
2023-09-09T19:57:39.639Z,40.98
2023-09-09T20:00:08.742Z,41.30
2023-09-09T20:02:35.599Z,42.05
2023-09-09T20:05:02.391Z,46.08
2023-09-09T20:07:29.145Z,46.42
2023-09-09T20:10:09.182Z,47.48
2023-09-09T20:12:35.851Z,45.88
2023-09-09T20:15:02.737Z,49.39
2023-09-09T20:17:29.439Z,47.86
2023-09-09T20:19:56.155Z,49.98
2023-09-09T20:22:25.629Z,49.92
2023-09-09T20:24:53.548Z,45.52
2023-09-09T20:27:20.267Z,43.31
2023-09-09T20:29:46.885Z,44.24
2023-09-09T20:32:13.613Z,43.45
2023-09-09T20:34:41.994Z,46.57
2023-09-09T20:37:09.175Z,43.68
2023-09-09T20:39:35.887Z,43.46
2023-09-09T20:42:02.980Z,43.48
2023-09-09T20:44:31.458Z,47.35
2023-09-09T20:46:58.524Z,46.86
2023-09-09T20:49:25.258Z,47.77
2023-09-09T20:51:51.938Z,47.09
2023-09-09T20:54:18.637Z,47.01
2023-09-09T20:56:45.283Z,50.85
2023-09-09T20:59:12.146Z,49.84
2023-09-09T21:01:39.175Z,53.25
2023-09-09T21:04:06.395Z,52.72
2023-09-09T21:06:33.072Z,47.07
2023-09-09T21:08:59.733Z,48.86
2023-09-09T21:11:26.423Z,47.38
2023-09-09T21:13:53.170Z,45.67
2023-09-09T21:16:20.804Z,47.38
2023-09-09T21:18:47.694Z,50.22
2023-09-09T21:21:14.629Z,49.33
2023-09-09T21:23:42.148Z,51.47
2023-09-09T21:26:08.880Z,50.66
2023-09-09T21:28:37.072Z,49.71
2023-09-09T21:31:04.693Z,49.33
2023-09-09T21:33:31.997Z,49.06
2023-09-09T21:35:58.655Z,50.60
2023-09-09T21:38:25.295Z,49.44
2023-09-09T21:40:51.894Z,50.97
2023-09-09T21:43:19.908Z,47.46
2023-09-09T21:45:46.884Z,50.27
2023-09-09T21:48:13.589Z,53.25
2023-09-09T21:50:40.956Z,49.68
2023-09-09T21:53:07.704Z,49.39
2023-09-09T21:55:34.403Z,49.18
2023-09-09T21:58:01.075Z,47.18
2023-09-09T22:00:27.883Z,51.53
2023-09-09T22:02:54.798Z,51.37
2023-09-09T22:05:21.551Z,51.05
2023-09-09T22:07:48.473Z,48.76
2023-09-09T22:10:15.502Z,50.92
2023-09-09T22:12:42.351Z,49.56
2023-09-09T22:15:10.162Z,53.19
2023-09-09T22:17:37.370Z,52.90
2023-09-09T22:20:09.267Z,52.56
2023-09-09T22:22:37.259Z,50.19
2023-09-09T22:25:07.643Z,52.26
2023-09-09T22:27:34.582Z,53.88
2023-09-09T22:30:01.324Z,54.48
2023-09-09T22:32:27.904Z,52.82
2023-09-09T22:34:57.193Z,53.42
2023-09-09T22:37:24.795Z,53.31
2023-09-09T22:39:51.926Z,53.40
2023-09-09T22:42:18.589Z,54.78
2023-09-09T22:44:45.249Z,56.32
2023-09-09T22:47:11.933Z,53.42
2023-09-09T22:49:40.514Z,55.16
2023-09-09T22:52:08.653Z,58.15
2023-09-09T22:54:35.622Z,57.37
2023-09-09T22:57:02.367Z,56.16
2023-09-09T22:59:29.024Z,58.09
2023-09-09T23:01:55.728Z,57.53
2023-09-09T23:04:22.601Z,58.66
2023-09-09T23:06:49.418Z,56.57
2023-09-09T23:09:16.102Z,58.02
2023-09-09T23:11:42.706Z,55.78
2023-09-09T23:14:09.391Z,56.47
2023-09-09T23:16:38.500Z,60.50
2023-09-09T23:19:08.579Z,61.86
2023-09-09T23:21:35.831Z,63.49
2023-09-09T23:24:05.030Z,63.97
2023-09-09T23:26:31.747Z,63.41
2023-09-09T23:28:58.966Z,62.82
2023-09-09T23:31:27.584Z,61.98
2023-09-09T23:33:54.315Z,60.85
2023-09-09T23:36:21.059Z,61.42
2023-09-09T23:38:47.742Z,57.80
2023-09-09T23:41:14.416Z,58.40
2023-09-09T23:43:42.144Z,59.47
2023-09-09T23:46:08.959Z,59.86
2023-09-09T23:48:35.795Z,58.31
2023-09-09T23:51:03.278Z,61.06
2023-09-09T23:53:30.137Z,63.03
2023-09-09T23:55:56.855Z,62.63
2023-09-09T23:58:24.022Z,63.13
